createdAt,value
2018-11-13T00:00:21.173Z,53.20
2018-11-13T00:02:50.943Z,49.25
2018-11-13T00:05:20.111Z,46.35
2018-11-13T00:07:49.048Z,45.98
2018-11-13T00:10:17.909Z,49.03
2018-11-13T00:12:46.773Z,45.38
2018-11-13T00:15:15.657Z,45.23
2018-11-13T00:17:44.470Z,45.55
2018-11-13T00:20:14.510Z,40.55
2018-11-13T00:22:43.898Z,41.58
2018-11-13T00:25:14.022Z,40.40
2018-11-13T00:27:43.410Z,39.13
2018-11-13T00:30:14.906Z,42.73
2018-11-13T00:32:44.091Z,42.08
2018-11-13T00:35:13.791Z,40.88
2018-11-13T00:37:42.756Z,42.05
2018-11-13T00:40:12.452Z,38.80
2018-11-13T00:42:42.308Z,42.48
2018-11-13T00:45:11.150Z,44.42
2018-11-13T00:47:40.053Z,51.45
2018-11-13T00:50:11.234Z,48.92
2018-11-13T00:52:40.454Z,47.95
2018-11-13T00:55:09.409Z,46.92
2018-11-13T00:57:38.513Z,44.48
2018-11-13T01:00:09.885Z,42.78
2018-11-13T01:02:38.731Z,41.40
2018-11-13T01:05:09.451Z,44.13
2018-11-13T01:07:38.360Z,38.63
2018-11-13T01:10:08.495Z,50.73
2018-11-13T01:12:37.375Z,44.90
2018-11-13T01:15:07.059Z,39.60
2018-11-13T01:17:35.789Z,39.25
2018-11-13T01:20:04.790Z,41.92
2018-11-13T01:22:34.088Z,42.25
2018-11-13T01:25:02.569Z,39.63
2018-11-13T01:27:31.481Z,36.85
2018-11-13T01:30:00.317Z,38.65
2018-11-13T01:32:29.957Z,37.42
2018-11-13T01:34:58.842Z,42.20
2018-11-13T01:37:27.660Z,37.55
2018-11-13T01:39:56.522Z,40.75
2018-11-13T01:42:25.442Z,41.83
2018-11-13T01:44:54.274Z,46.00
2018-11-13T01:47:23.068Z,52.08
2018-11-13T01:49:52.030Z,48.60
2018-11-13T01:52:20.848Z,44.05
2018-11-13T01:54:49.702Z,46.95
2018-11-13T01:57:18.554Z,44.35
2018-11-13T01:59:47.417Z,45.83
2018-11-13T02:02:16.238Z,56.50
2018-11-13T02:04:45.056Z,46.92
2018-11-13T02:07:14.011Z,44.73
2018-11-13T02:09:42.920Z,44.48
2018-11-13T02:12:11.856Z,42.48
2018-11-13T02:14:40.697Z,45.20
2018-11-13T02:17:09.622Z,43.92
2018-11-13T02:19:38.529Z,42.13
2018-11-13T02:22:07.380Z,47.65
2018-11-13T02:24:36.236Z,45.40
2018-11-13T02:27:05.182Z,44.18
2018-11-13T02:29:34.126Z,44.70
2018-11-13T02:32:02.992Z,39.65
2018-11-13T02:34:31.849Z,43.83
2018-11-13T02:37:00.673Z,43.00
2018-11-13T02:39:29.554Z,41.02
2018-11-13T02:41:58.439Z,44.08
2018-11-13T02:44:27.259Z,43.40
2018-11-13T02:46:56.242Z,43.35
2018-11-13T02:49:28.147Z,40.45
2018-11-13T02:51:57.271Z,42.55
2018-11-13T02:54:26.101Z,41.48
2018-11-13T02:56:54.956Z,46.65
2018-11-13T02:59:23.795Z,42.03
2018-11-13T03:01:52.644Z,40.98
2018-11-13T03:04:21.469Z,42.33
2018-11-13T03:06:50.495Z,42.23
2018-11-13T03:09:19.450Z,49.58
2018-11-13T03:11:48.431Z,48.05
2018-11-13T03:14:17.256Z,43.33
2018-11-13T03:16:46.123Z,126.62
2018-11-13T03:19:15.011Z,47.73
2018-11-13T03:21:43.997Z,45.58
2018-11-13T03:24:12.992Z,46.75
2018-11-13T03:26:42.001Z,42.55
2018-11-13T03:29:10.807Z,46.90
2018-11-13T03:31:39.743Z,45.83
2018-11-13T03:34:08.515Z,47.00
2018-11-13T03:36:37.655Z,48.70
2018-11-13T03:39:08.497Z,44.58
2018-11-13T03:41:37.838Z,46.13
2018-11-13T03:44:07.731Z,43.73
2018-11-13T03:46:36.619Z,45.85
2018-11-13T03:49:06.075Z,46.18
2018-11-13T03:51:34.941Z,48.92
2018-11-13T03:54:03.852Z,49.95
2018-11-13T03:56:32.749Z,50.55
2018-11-13T03:59:01.585Z,62.30
2018-11-13T04:01:30.484Z,63.73
2018-11-13T04:03:59.463Z,62.17
2018-11-13T04:06:28.322Z,58.15
2018-11-13T04:08:57.155Z,54.85
2018-11-13T04:11:26.063Z,53.55
2018-11-13T04:14:01.108Z,57.78
2018-11-13T04:16:30.010Z,53.75
2018-11-13T04:18:58.869Z,55.43
2018-11-13T04:21:27.702Z,54.75
2018-11-13T04:23:56.554Z,48.83
2018-11-13T04:26:25.647Z,49.67
2018-11-13T04:28:54.497Z,53.17
2018-11-13T04:31:23.336Z,51.42
2018-11-13T04:33:52.443Z,56.13
2018-11-13T04:36:21.307Z,48.58
2018-11-13T04:38:50.258Z,53.20
2018-11-13T04:41:19.193Z,48.78
2018-11-13T04:43:48.103Z,46.08
2018-11-13T04:46:17.747Z,53.05
2018-11-13T04:48:46.717Z,50.60
2018-11-13T04:51:15.554Z,49.75
2018-11-13T04:53:44.467Z,53.78
2018-11-13T04:56:13.610Z,61.70
2018-11-13T04:58:42.469Z,60.08
2018-11-13T05:01:11.295Z,55.70
2018-11-13T05:03:40.114Z,58.58
2018-11-13T05:06:09.148Z,57.93
2018-11-13T05:08:37.995Z,64.80
2018-11-13T05:11:07.079Z,62.40
2018-11-13T05:13:36.009Z,64.07
2018-11-13T05:16:05.257Z,68.75
2018-11-13T05:18:34.141Z,71.07
2018-11-13T05:21:02.996Z,65.03
2018-11-13T05:23:31.797Z,73.00
2018-11-13T05:26:00.625Z,70.15
2018-11-13T05:28:29.460Z,63.52
2018-11-13T05:31:04.504Z,59.80
2018-11-13T05:33:33.329Z,57.20
2018-11-13T05:36:02.202Z,57.98
2018-11-13T05:38:31.035Z,64.75
2018-11-13T05:40:59.865Z,57.90
2018-11-13T05:43:28.943Z,57.93
2018-11-13T05:45:57.993Z,62.48
2018-11-13T05:48:26.861Z,63.80
2018-11-13T05:50:55.794Z,64.05
2018-11-13T05:53:24.619Z,64.37
2018-11-13T05:55:53.444Z,77.55
2018-11-13T05:58:22.324Z,66.57
2018-11-13T06:00:51.149Z,70.03
2018-11-13T06:03:19.993Z,68.12
2018-11-13T06:05:48.846Z,74.62
2018-11-13T06:08:18.605Z,66.57
2018-11-13T06:10:48.182Z,71.45
2018-11-13T06:13:17.021Z,75.97
2018-11-13T06:15:45.956Z,63.17
2018-11-13T06:18:14.829Z,62.43
2018-11-13T06:20:43.651Z,72.53
2018-11-13T06:23:12.561Z,74.65
2018-11-13T06:25:41.329Z,73.85
2018-11-13T06:28:10.274Z,69.55
2018-11-13T06:30:39.151Z,71.53
2018-11-13T06:33:08.033Z,71.25
2018-11-13T06:35:36.912Z,74.00
2018-11-13T06:38:05.890Z,77.82
2018-11-13T06:40:34.773Z,79.00
2018-11-13T06:43:03.636Z,74.27
2018-11-13T06:45:32.465Z,78.28
2018-11-13T06:48:01.292Z,79.03
2018-11-13T06:50:30.164Z,85.35
2018-11-13T06:52:59.025Z,81.08
2018-11-13T06:55:35.034Z,101.97
2018-11-13T06:58:04.505Z,98.30
2018-11-13T07:00:33.409Z,93.72
2018-11-13T07:03:02.409Z,97.75
2018-11-13T07:05:31.230Z,100.58
2018-11-13T07:08:00.169Z,92.20
2018-11-13T07:10:29.774Z,89.95
2018-11-13T07:12:59.164Z,78.33
2018-11-13T07:15:29.288Z,80.45
2018-11-13T07:18:02.390Z,83.22
2018-11-13T07:20:32.569Z,73.72
2018-11-13T07:23:01.492Z,69.17
2018-11-13T07:25:30.429Z,81.57
2018-11-13T07:27:59.367Z,75.45
2018-11-13T07:30:28.675Z,74.62
2018-11-13T07:32:57.508Z,76.60
2018-11-13T07:35:26.366Z,75.65
2018-11-13T07:37:57.407Z,74.75
2018-11-13T07:40:26.453Z,78.85
2018-11-13T07:42:55.489Z,87.88
2018-11-13T07:45:24.386Z,80.15
2018-11-13T07:47:53.730Z,84.47
2018-11-13T07:50:22.544Z,88.50
2018-11-13T07:52:51.394Z,77.15
2018-11-13T07:55:20.236Z,75.72
2018-11-13T07:57:49.074Z,72.42
2018-11-13T08:00:20.000Z,84.45
2018-11-13T08:02:50.221Z,81.87
2018-11-13T08:05:19.113Z,74.65
2018-11-13T08:07:47.956Z,74.10
2018-11-13T08:10:16.944Z,78.85
2018-11-13T08:12:46.197Z,75.03
2018-11-13T08:15:16.309Z,67.60
2018-11-13T08:17:45.153Z,70.30
2018-11-13T08:20:15.168Z,64.25
2018-11-13T08:22:44.524Z,71.50
2018-11-13T08:25:13.522Z,65.30
2018-11-13T08:27:45.774Z,73.85
2018-11-13T08:30:16.017Z,67.92
2018-11-13T08:32:45.616Z,67.15
2018-11-13T08:35:14.722Z,67.95
2018-11-13T08:37:43.682Z,72.97
2018-11-13T08:40:14.125Z,68.55
2018-11-13T08:42:43.683Z,73.25
2018-11-13T08:45:13.527Z,67.27
2018-11-13T08:47:42.737Z,65.60
2018-11-13T08:50:12.156Z,69.82
2018-11-13T08:52:41.745Z,72.37
2018-11-13T08:55:11.169Z,73.47
2018-11-13T08:57:40.090Z,75.12
2018-11-13T09:00:11.018Z,68.47
2018-11-13T09:02:40.274Z,69.57
2018-11-13T09:05:09.797Z,75.07
2018-11-13T09:07:38.762Z,65.50
2018-11-13T09:10:10.360Z,62.10
2018-11-13T09:12:39.742Z,59.77
2018-11-13T09:15:10.700Z,67.10
2018-11-13T09:17:39.601Z,60.33
2018-11-13T09:20:10.664Z,57.03
2018-11-13T09:22:39.557Z,56.33
2018-11-13T09:25:10.633Z,54.90
2018-11-13T09:27:40.477Z,53.77
2018-11-13T09:30:11.973Z,52.47
2018-11-13T09:32:41.352Z,55.70
2018-11-13T09:35:11.579Z,56.93
2018-11-13T09:37:40.332Z,51.40
2018-11-13T09:40:11.863Z,55.57
2018-11-13T09:42:41.382Z,51.27
2018-11-13T09:45:10.988Z,53.97
2018-11-13T09:47:40.255Z,55.03
2018-11-13T09:50:13.572Z,55.10
2018-11-13T09:52:43.631Z,46.73
2018-11-13T09:55:13.943Z,51.37
2018-11-13T09:57:42.781Z,47.87
2018-11-13T10:00:17.075Z,48.90
2018-11-13T10:02:54.081Z,45.17
2018-11-13T10:05:23.056Z,44.00
2018-11-13T10:07:52.407Z,44.63
2018-11-13T10:10:21.293Z,44.77
2018-11-13T10:12:50.243Z,43.07
2018-11-13T10:15:23.414Z,41.23
2018-11-13T10:17:52.379Z,39.57
2018-11-13T10:20:21.193Z,39.67
2018-11-13T10:22:51.504Z,42.17
2018-11-13T10:25:20.391Z,41.50
2018-11-13T10:27:49.374Z,38.00
2018-11-13T10:30:19.386Z,35.20
2018-11-13T10:32:48.788Z,35.37
2018-11-13T10:35:19.019Z,36.63
2018-11-13T10:37:47.947Z,37.87
2018-11-13T10:40:18.177Z,41.67
2018-11-13T10:42:47.055Z,36.70
2018-11-13T10:45:18.297Z,35.20
2018-11-13T10:47:47.115Z,33.17
2018-11-13T10:50:17.734Z,36.37
2018-11-13T10:52:46.667Z,34.37
2018-11-13T10:55:15.486Z,35.40
2018-11-13T10:57:44.634Z,34.00
2018-11-13T11:00:20.546Z,37.03
2018-11-13T11:02:54.728Z,36.00
2018-11-13T11:05:25.491Z,35.77
2018-11-13T11:07:54.631Z,33.50
2018-11-13T11:10:23.468Z,32.77
2018-11-13T11:12:52.376Z,32.43
2018-11-13T11:15:21.232Z,33.57
2018-11-13T11:17:50.090Z,31.93
2018-11-13T11:20:18.957Z,31.73
2018-11-13T11:22:47.952Z,32.53
2018-11-13T11:25:16.736Z,30.93
2018-11-13T11:27:45.580Z,27.30
2018-11-13T11:30:15.384Z,29.13
2018-11-13T11:32:44.284Z,26.87
2018-11-13T11:35:13.181Z,25.60
2018-11-13T11:37:42.348Z,27.93
2018-11-13T11:40:12.183Z,28.33
2018-11-13T11:42:41.052Z,26.03
2018-11-13T11:45:12.154Z,28.33
2018-11-13T11:47:41.084Z,27.23
2018-11-13T11:50:11.080Z,30.40
2018-11-13T11:52:40.035Z,26.83
2018-11-13T11:55:09.497Z,25.77
2018-11-13T11:57:38.348Z,25.27
2018-11-13T12:00:10.336Z,27.13
2018-11-13T12:02:39.206Z,26.30
2018-11-13T12:05:08.713Z,27.60
2018-11-13T12:07:37.922Z,31.33
2018-11-13T12:10:08.801Z,26.47
2018-11-13T12:12:37.653Z,27.57
2018-11-13T12:15:08.213Z,27.83
2018-11-13T12:17:37.124Z,29.33
2018-11-13T12:20:06.860Z,30.33
2018-11-13T12:22:35.718Z,27.57
2018-11-13T12:25:04.771Z,27.20
2018-11-13T12:27:33.606Z,28.87
2018-11-13T12:30:02.449Z,28.97
2018-11-13T12:32:31.324Z,26.73
2018-11-13T12:35:00.182Z,27.90
2018-11-13T12:37:29.004Z,28.03
2018-11-13T12:39:57.920Z,27.80
2018-11-13T12:42:26.779Z,27.53
2018-11-13T12:44:55.619Z,29.27
2018-11-13T12:47:24.532Z,25.93
2018-11-13T12:49:53.393Z,26.33
2018-11-13T12:52:23.973Z,27.50
2018-11-13T12:54:51.108Z,28.50
2018-11-13T12:57:19.920Z,27.07
2018-11-13T12:59:48.867Z,26.80
2018-11-13T13:02:17.746Z,25.97
2018-11-13T13:04:46.574Z,26.43
2018-11-13T13:07:15.446Z,25.43
2018-11-13T13:09:44.270Z,24.73
2018-11-13T13:12:13.186Z,25.33
2018-11-13T13:14:42.089Z,25.40
2018-11-13T13:17:11.037Z,24.63
2018-11-13T13:19:39.878Z,27.57
2018-11-13T13:22:08.784Z,25.10
2018-11-13T13:24:37.606Z,25.53
2018-11-13T13:27:06.519Z,29.27
2018-11-13T13:29:35.448Z,27.83
2018-11-13T13:32:04.310Z,25.93
2018-11-13T13:34:33.189Z,26.53
2018-11-13T13:37:02.029Z,27.03
2018-11-13T13:39:30.877Z,26.40
2018-11-13T13:41:59.708Z,25.73
2018-11-13T13:44:28.569Z,26.20
2018-11-13T13:46:57.386Z,26.30
2018-11-13T13:49:26.249Z,24.77
2018-11-13T13:51:55.090Z,25.50
2018-11-13T13:54:24.042Z,23.60
2018-11-13T13:56:52.882Z,23.60
2018-11-13T13:59:21.842Z,24.20
2018-11-13T14:01:50.703Z,25.83
2018-11-13T14:04:19.574Z,24.77
2018-11-13T14:06:48.415Z,23.87
2018-11-13T14:09:17.306Z,22.87
2018-11-13T14:11:46.127Z,24.13
2018-11-13T14:14:14.973Z,22.60
2018-11-13T14:16:43.789Z,24.60
2018-11-13T14:19:12.718Z,26.47
2018-11-13T14:21:41.573Z,24.60
2018-11-13T14:24:10.411Z,22.77
2018-11-13T14:26:39.297Z,24.53
2018-11-13T14:29:08.319Z,23.20
2018-11-13T14:31:37.120Z,23.97
2018-11-13T14:34:06.199Z,24.27
2018-11-13T14:36:35.074Z,24.53
2018-11-13T14:39:04.719Z,24.73
2018-11-13T14:41:33.648Z,25.17
2018-11-13T14:44:02.478Z,25.23
2018-11-13T14:46:31.417Z,25.37
2018-11-13T14:49:00.222Z,26.23
2018-11-13T14:51:29.042Z,26.63
2018-11-13T14:53:57.909Z,25.70
2018-11-13T14:56:26.777Z,26.37
2018-11-13T14:58:55.673Z,27.20
2018-11-13T15:01:24.555Z,27.67
2018-11-13T15:03:53.476Z,26.60
2018-11-13T15:06:22.453Z,27.07
2018-11-13T15:08:51.335Z,29.37
2018-11-13T15:14:18.256Z,26.37
2018-11-13T15:16:47.108Z,29.63
2018-11-13T15:19:15.948Z,26.63
2018-11-13T15:21:44.852Z,28.17
2018-11-13T15:24:13.769Z,27.80
2018-11-13T15:26:42.664Z,28.03
2018-11-13T15:29:11.533Z,29.70
2018-11-13T15:31:40.452Z,32.47
2018-11-13T15:34:09.307Z,28.77
2018-11-13T15:36:38.271Z,28.47
2018-11-13T15:39:10.767Z,29.73
2018-11-13T15:41:39.616Z,33.50
2018-11-13T15:44:08.605Z,28.13
2018-11-13T15:46:37.478Z,27.43
2018-11-13T15:49:06.315Z,28.03
2018-11-13T15:51:35.341Z,28.03
2018-11-13T15:54:04.108Z,27.63
2018-11-13T15:56:32.962Z,28.43
2018-11-13T15:59:01.812Z,29.70
2018-11-13T16:01:30.720Z,30.33
2018-11-13T16:03:59.546Z,29.23
2018-11-13T16:06:28.588Z,34.23
2018-11-13T16:08:57.396Z,32.27
2018-11-13T16:11:26.347Z,32.83
2018-11-13T16:13:55.240Z,31.17
2018-11-13T16:16:24.146Z,32.83
2018-11-13T16:18:52.977Z,31.10
2018-11-13T16:21:21.896Z,33.23
2018-11-13T16:23:51.598Z,33.77
2018-11-13T16:26:20.447Z,34.53
2018-11-13T16:28:49.548Z,32.47
2018-11-13T16:31:18.465Z,35.27
2018-11-13T16:33:47.347Z,31.87
2018-11-13T16:36:16.282Z,29.23
2018-11-13T16:38:45.749Z,31.50
2018-11-13T16:41:14.708Z,31.53
2018-11-13T16:43:43.518Z,29.67
2018-11-13T16:46:12.486Z,34.73
2018-11-13T16:48:41.349Z,31.17
2018-11-13T16:51:10.293Z,31.57
2018-11-13T16:53:44.430Z,32.50
2018-11-13T16:56:13.258Z,32.07
2018-11-13T16:58:42.189Z,33.40
2018-11-13T17:01:11.272Z,37.17
2018-11-13T17:03:40.177Z,37.07
2018-11-13T17:06:09.134Z,38.10
2018-11-13T17:08:38.019Z,40.93
2018-11-13T17:11:06.897Z,45.70
2018-11-13T17:13:35.804Z,45.33
2018-11-13T17:16:04.686Z,50.93
2018-11-13T17:18:33.553Z,47.63
2018-11-13T17:21:02.426Z,48.03
2018-11-13T17:23:31.319Z,45.13
2018-11-13T17:26:00.225Z,45.50
2018-11-13T17:28:29.114Z,44.67
2018-11-13T17:30:58.038Z,46.30
2018-11-13T17:33:26.879Z,49.93
2018-11-13T17:35:55.739Z,48.30
2018-11-13T17:38:24.602Z,50.30
2018-11-13T17:40:53.455Z,50.93
2018-11-13T17:43:22.330Z,45.97
2018-11-13T17:45:51.169Z,47.53
2018-11-13T17:48:20.056Z,44.23
2018-11-13T17:50:48.890Z,44.47
2018-11-13T17:53:17.804Z,46.33
2018-11-13T17:55:46.681Z,43.23
2018-11-13T17:58:15.898Z,46.97
2018-11-13T18:00:46.309Z,42.80
2018-11-13T18:03:16.039Z,47.43
2018-11-13T18:05:45.561Z,45.60
2018-11-13T18:08:14.581Z,47.80
2018-11-13T18:10:44.805Z,46.70
2018-11-13T18:13:14.401Z,41.43
2018-11-13T18:15:43.280Z,42.73
2018-11-13T18:18:12.758Z,49.13
2018-11-13T18:20:42.301Z,44.13
2018-11-13T18:23:11.377Z,45.23
2018-11-13T18:25:40.374Z,47.48
2018-11-13T18:28:09.487Z,48.37
2018-11-13T18:30:39.074Z,51.17
2018-11-13T18:33:08.568Z,50.37
2018-11-13T18:35:38.475Z,50.43
2018-11-13T18:38:09.514Z,52.27
2018-11-13T18:40:38.441Z,55.80
2018-11-13T18:43:07.654Z,50.93
2018-11-13T18:45:38.240Z,52.20
2018-11-13T18:48:07.120Z,51.93
2018-11-13T18:50:37.569Z,53.87
2018-11-13T18:53:06.650Z,56.03
2018-11-13T18:55:35.525Z,53.50
2018-11-13T18:58:04.808Z,54.73
2018-11-13T19:00:35.074Z,58.37
2018-11-13T19:03:05.530Z,59.63
2018-11-13T19:05:34.550Z,54.53
2018-11-13T19:08:03.462Z,53.60
2018-11-13T19:10:38.008Z,51.87
2018-11-13T19:13:09.189Z,57.67
2018-11-13T19:15:39.545Z,56.33
2018-11-13T19:18:09.140Z,60.10
2018-11-13T19:20:38.059Z,59.10
2018-11-13T19:23:07.144Z,60.40
2018-11-13T19:25:36.606Z,59.07
2018-11-13T19:28:05.652Z,63.67
2018-11-13T19:30:34.544Z,64.90
2018-11-13T19:33:03.459Z,68.50
2018-11-13T19:35:32.481Z,75.08
2018-11-13T19:38:01.263Z,78.93
2018-11-13T19:40:31.807Z,78.45
2018-11-13T19:43:02.133Z,81.45
2018-11-13T19:45:30.979Z,78.67
2018-11-13T19:48:00.026Z,78.78
2018-11-13T19:50:30.191Z,74.75
2018-11-13T19:53:01.663Z,69.27
2018-11-13T19:55:31.269Z,64.72
2018-11-13T19:58:00.243Z,69.20
2018-11-13T20:00:34.471Z,72.60
2018-11-13T20:03:04.683Z,77.30
2018-11-13T20:05:33.844Z,76.85
2018-11-13T20:08:02.842Z,72.92
2018-11-13T20:10:33.256Z,71.67
2018-11-13T20:13:03.214Z,72.65
2018-11-13T20:15:33.051Z,69.07
2018-11-13T20:18:01.986Z,69.95
2018-11-13T20:20:31.950Z,67.17
2018-11-13T20:23:02.049Z,69.25
2018-11-13T20:25:32.168Z,71.85
2018-11-13T20:28:01.180Z,68.35
2018-11-13T20:30:31.748Z,73.80
2018-11-13T20:33:00.627Z,74.07
2018-11-13T20:35:29.578Z,68.95
2018-11-13T20:37:59.073Z,70.83
2018-11-13T20:40:29.348Z,75.10
2018-11-13T20:42:59.463Z,63.68
2018-11-13T20:45:28.342Z,64.05
2018-11-13T20:47:57.315Z,68.45
2018-11-13T20:50:28.498Z,61.23
2018-11-13T20:52:57.474Z,66.53
2018-11-13T20:55:26.467Z,68.60
2018-11-13T20:57:55.341Z,64.53
2018-11-13T21:00:38.553Z,69.62
2018-11-13T21:03:07.869Z,69.87
2018-11-13T21:05:36.736Z,69.15
2018-11-13T21:08:05.737Z,67.55
2018-11-13T21:10:36.322Z,65.85
2018-11-13T21:13:05.538Z,65.50
2018-11-13T21:15:34.380Z,63.15
2018-11-13T21:18:03.263Z,64.95
2018-11-13T21:20:32.104Z,65.20
2018-11-13T21:23:01.065Z,65.75
2018-11-13T21:25:29.919Z,61.02
2018-11-13T21:28:00.714Z,71.37
2018-11-13T21:30:29.668Z,65.40
2018-11-13T21:32:58.548Z,62.55
2018-11-13T21:35:27.383Z,66.02
2018-11-13T21:37:57.264Z,59.42
2018-11-13T21:40:27.199Z,59.77
2018-11-13T21:42:56.672Z,69.60
2018-11-13T21:45:26.510Z,65.62
2018-11-13T21:47:55.389Z,61.77
2018-11-13T21:50:26.679Z,67.32
2018-11-13T21:52:55.557Z,63.13
2018-11-13T21:55:25.625Z,59.50
2018-11-13T21:57:54.458Z,65.05
2018-11-13T22:00:27.428Z,61.28
2018-11-13T22:03:00.517Z,61.55
2018-11-13T22:05:30.143Z,59.58
2018-11-13T22:07:59.056Z,63.10
2018-11-13T22:10:27.980Z,59.90
2018-11-13T22:12:56.884Z,61.55
2018-11-13T22:15:26.988Z,60.80
2018-11-13T22:17:55.927Z,65.65
2018-11-13T22:20:25.442Z,58.42
2018-11-13T22:22:55.581Z,56.68
2018-11-13T22:25:25.366Z,59.27
2018-11-13T22:27:55.674Z,59.55
2018-11-13T22:30:28.913Z,59.55
2018-11-13T22:32:57.772Z,58.28
2018-11-13T22:35:26.637Z,62.15
2018-11-13T22:37:54.335Z,60.88
2018-11-13T22:40:25.595Z,62.73
2018-11-13T22:42:54.631Z,63.42
2018-11-13T22:45:25.617Z,62.03
2018-11-13T22:47:54.820Z,58.75
2018-11-13T22:50:26.040Z,66.42
2018-11-13T22:52:55.371Z,62.10
2018-11-13T22:55:24.298Z,61.10
2018-11-13T22:57:54.784Z,61.50
2018-11-13T23:00:30.158Z,56.75
2018-11-13T23:02:59.034Z,59.20
2018-11-13T23:05:27.861Z,56.63
2018-11-13T23:07:56.734Z,52.80
2018-11-13T23:10:25.578Z,53.50
2018-11-13T23:12:54.409Z,59.05
2018-11-13T23:15:23.331Z,61.85
2018-11-13T23:17:52.161Z,52.73
2018-11-13T23:20:21.708Z,57.13
2018-11-13T23:22:50.606Z,57.40
2018-11-13T23:25:20.292Z,56.58
2018-11-13T23:27:50.370Z,57.13
2018-11-13T23:30:21.617Z,57.70
2018-11-13T23:32:50.772Z,55.92
2018-11-13T23:35:19.919Z,57.83
2018-11-13T23:37:50.164Z,54.90
2018-11-13T23:40:20.299Z,57.03
2018-11-13T23:42:49.554Z,56.13
2018-11-13T23:45:19.351Z,60.30
2018-11-13T23:47:48.694Z,53.58
2018-11-13T23:50:17.627Z,58.78
2018-11-13T23:52:47.378Z,54.65
2018-11-13T23:55:16.611Z,53.23
2018-11-13T23:57:45.990Z,56.63
